sensor_id;sensor_type;location;lat;lon;timestamp;P1;durP1;ratioP1;P2;durP2;ratioP2
9124;SDS011;4597;48.730;9.114;2023-03-16T00:01:16;17.07;;;10.37;;
9124;SDS011;4597;48.730;9.114;2023-03-16T00:03:41;10.17;;;9.03;;
9124;SDS011;4597;48.730;9.114;2023-03-16T00:06:07;11.97;;;8.77;;
9124;SDS011;4597;48.730;9.114;2023-03-16T00:08:33;14.60;;;9.43;;
9124;SDS011;4597;48.730;9.114;2023-03-16T00:10:59;15.00;;;10.33;;
9124;SDS011;4597;48.730;9.114;2023-03-16T00:13:26;13.00;;;9.97;;
9124;SDS011;4597;48.730;9.114;2023-03-16T00:15:53;18.47;;;10.57;;
9124;SDS011;4597;48.730;9.114;2023-03-16T00:18:19;12.77;;;9.43;;
9124;SDS011;4597;48.730;9.114;2023-03-16T00:20:49;13.43;;;9.60;;
9124;SDS011;4597;48.730;9.114;2023-03-16T00:23:16;11.03;;;8.53;;
9124;SDS011;4597;48.730;9.114;2023-03-16T00:25:42;11.93;;;8.67;;
9124;SDS011;4597;48.730;9.114;2023-03-16T00:28:07;12.00;;;8.80;;
9124;SDS011;4597;48.730;9.114;2023-03-16T00:30:32;7.93;;;7.07;;
9124;SDS011;4597;48.730;9.114;2023-03-16T00:32:58;10.63;;;8.23;;
9124;SDS011;4597;48.730;9.114;2023-03-16T00:35:24;9.63;;;8.20;;
9124;SDS011;4597;48.730;9.114;2023-03-16T00:37:49;9.37;;;8.37;;
9124;SDS011;4597;48.730;9.114;2023-03-16T00:40:15;8.73;;;7.70;;
9124;SDS011;4597;48.730;9.114;2023-03-16T00:42:41;9.87;;;7.93;;
9124;SDS011;4597;48.730;9.114;2023-03-16T00:45:07;10.57;;;8.20;;
9124;SDS011;4597;48.730;9.114;2023-03-16T00:47:33;9.33;;;8.23;;
9124;SDS011;4597;48.730;9.114;2023-03-16T00:49:59;8.23;;;7.37;;
9124;SDS011;4597;48.730;9.114;2023-03-16T00:52:26;9.13;;;8.13;;
9124;SDS011;4597;48.730;9.114;2023-03-16T00:54:53;8.60;;;7.67;;
9124;SDS011;4597;48.730;9.114;2023-03-16T00:57:20;9.77;;;8.63;;
9124;SDS011;4597;48.730;9.114;2023-03-16T00:59:48;11.17;;;8.70;;
9124;SDS011;4597;48.730;9.114;2023-03-16T01:02:15;11.77;;;9.23;;
9124;SDS011;4597;48.730;9.114;2023-03-16T01:04:43;12.00;;;9.23;;
9124;SDS011;4597;48.730;9.114;2023-03-16T01:07:10;13.47;;;9.90;;
9124;SDS011;4597;48.730;9.114;2023-03-16T01:09:38;13.03;;;10.50;;
9124;SDS011;4597;48.730;9.114;2023-03-16T01:12:05;13.67;;;9.77;;
9124;SDS011;4597;48.730;9.114;2023-03-16T01:14:33;11.60;;;9.83;;
9124;SDS011;4597;48.730;9.114;2023-03-16T01:16:59;12.87;;;10.13;;
9124;SDS011;4597;48.730;9.114;2023-03-16T01:19:26;14.23;;;9.77;;
9124;SDS011;4597;48.730;9.114;2023-03-16T01:21:51;11.80;;;10.07;;
9124;SDS011;4597;48.730;9.114;2023-03-16T01:24:17;24.23;;;9.87;;
9124;SDS011;4597;48.730;9.114;2023-03-16T01:26:43;25.47;;;9.43;;
9124;SDS011;4597;48.730;9.114;2023-03-16T01:29:09;11.90;;;8.60;;
9124;SDS011;4597;48.730;9.114;2023-03-16T01:31:36;16.97;;;8.87;;
9124;SDS011;4597;48.730;9.114;2023-03-16T01:34:01;28.37;;;8.57;;
9124;SDS011;4597;48.730;9.114;2023-03-16T01:36:28;10.33;;;8.53;;
9124;SDS011;4597;48.730;9.114;2023-03-16T01:38:55;13.93;;;8.53;;
9124;SDS011;4597;48.730;9.114;2023-03-16T01:41:20;22.13;;;8.70;;
9124;SDS011;4597;48.730;9.114;2023-03-16T01:43:46;10.07;;;8.00;;
9124;SDS011;4597;48.730;9.114;2023-03-16T01:46:13;20.47;;;8.30;;
9124;SDS011;4597;48.730;9.114;2023-03-16T01:48:55;14.20;;;8.83;;
9124;SDS011;4597;48.730;9.114;2023-03-16T01:51:48;23.20;;;8.30;;
9124;SDS011;4597;48.730;9.114;2023-03-16T01:59:36;14.00;;;8.37;;
9124;SDS011;4597;48.730;9.114;2023-03-16T02:02:07;9.57;;;8.17;;
9124;SDS011;4597;48.730;9.114;2023-03-16T02:07:18;13.63;;;8.03;;
9124;SDS011;4597;48.730;9.114;2023-03-16T02:09:47;8.10;;;7.27;;
9124;SDS011;4597;48.730;9.114;2023-03-16T02:12:15;10.73;;;8.00;;
9124;SDS011;4597;48.730;9.114;2023-03-16T02:14:44;8.63;;;7.57;;
9124;SDS011;4597;48.730;9.114;2023-03-16T02:17:13;11.37;;;7.47;;
9124;SDS011;4597;48.730;9.114;2023-03-16T02:22:25;10.77;;;7.60;;
9124;SDS011;4597;48.730;9.114;2023-03-16T02:24:51;12.30;;;8.30;;
9124;SDS011;4597;48.730;9.114;2023-03-16T02:27:31;10.93;;;7.60;;
9124;SDS011;4597;48.730;9.114;2023-03-16T02:30:18;7.93;;;7.13;;
9124;SDS011;4597;48.730;9.114;2023-03-16T02:32:45;10.30;;;7.70;;
9124;SDS011;4597;48.730;9.114;2023-03-16T02:35:15;10.50;;;7.90;;
9124;SDS011;4597;48.730;9.114;2023-03-16T02:37:41;8.60;;;7.57;;
9124;SDS011;4597;48.730;9.114;2023-03-16T02:40:23;9.20;;;7.53;;
9124;SDS011;4597;48.730;9.114;2023-03-16T02:45:30;9.43;;;7.63;;
9124;SDS011;4597;48.730;9.114;2023-03-16T02:48:01;12.53;;;8.57;;
9124;SDS011;4597;48.730;9.114;2023-03-16T02:50:33;13.90;;;8.40;;
9124;SDS011;4597;48.730;9.114;2023-03-16T02:52:58;12.10;;;9.40;;
9124;SDS011;4597;48.730;9.114;2023-03-16T02:55:24;10.03;;;8.90;;
9124;SDS011;4597;48.730;9.114;2023-03-16T02:57:50;10.93;;;8.33;;
9124;SDS011;4597;48.730;9.114;2023-03-16T03:00:16;13.83;;;8.13;;
9124;SDS011;4597;48.730;9.114;2023-03-16T03:02:43;12.40;;;9.03;;
9124;SDS011;4597;48.730;9.114;2023-03-16T03:05:10;14.33;;;9.33;;
9124;SDS011;4597;48.730;9.114;2023-03-16T03:07:36;14.17;;;9.13;;
9124;SDS011;4597;48.730;9.114;2023-03-16T03:10:02;13.10;;;9.77;;
9124;SDS011;4597;48.730;9.114;2023-03-16T03:12:30;14.00;;;9.13;;
9124;SDS011;4597;48.730;9.114;2023-03-16T03:14:56;14.07;;;9.30;;
9124;SDS011;4597;48.730;9.114;2023-03-16T03:17:22;13.57;;;9.40;;
9124;SDS011;4597;48.730;9.114;2023-03-16T03:19:53;9.47;;;8.00;;
9124;SDS011;4597;48.730;9.114;2023-03-16T03:22:23;10.47;;;7.97;;
9124;SDS011;4597;48.730;9.114;2023-03-16T03:24:50;9.90;;;8.87;;
9124;SDS011;4597;48.730;9.114;2023-03-16T03:27:16;11.33;;;8.87;;
9124;SDS011;4597;48.730;9.114;2023-03-16T03:29:41;15.07;;;9.20;;
9124;SDS011;4597;48.730;9.114;2023-03-16T03:32:08;11.90;;;9.23;;
9124;SDS011;4597;48.730;9.114;2023-03-16T03:34:35;11.93;;;9.17;;
9124;SDS011;4597;48.730;9.114;2023-03-16T03:37:01;11.97;;;9.33;;
9124;SDS011;4597;48.730;9.114;2023-03-16T03:39:26;12.67;;;8.70;;
9124;SDS011;4597;48.730;9.114;2023-03-16T03:41:52;10.40;;;8.70;;
9124;SDS011;4597;48.730;9.114;2023-03-16T03:44:18;12.70;;;8.50;;
9124;SDS011;4597;48.730;9.114;2023-03-16T03:46:45;12.10;;;8.77;;
9124;SDS011;4597;48.730;9.114;2023-03-16T03:49:11;10.43;;;8.43;;
9124;SDS011;4597;48.730;9.114;2023-03-16T03:51:36;11.87;;;8.70;;
9124;SDS011;4597;48.730;9.114;2023-03-16T03:54:02;10.47;;;8.40;;
9124;SDS011;4597;48.730;9.114;2023-03-16T03:56:28;11.13;;;8.33;;
9124;SDS011;4597;48.730;9.114;2023-03-16T03:58:53;10.80;;;8.63;;
9124;SDS011;4597;48.730;9.114;2023-03-16T04:01:19;10.33;;;9.03;;
9124;SDS011;4597;48.730;9.114;2023-03-16T04:03:45;9.63;;;8.63;;
9124;SDS011;4597;48.730;9.114;2023-03-16T04:06:10;11.90;;;8.33;;
9124;SDS011;4597;48.730;9.114;2023-03-16T04:08:36;10.83;;;8.87;;
9124;SDS011;4597;48.730;9.114;2023-03-16T04:11:01;10.97;;;8.53;;
9124;SDS011;4597;48.730;9.114;2023-03-16T04:13:27;11.30;;;8.03;;
9124;SDS011;4597;48.730;9.114;2023-03-16T04:15:56;9.67;;;8.00;;
9124;SDS011;4597;48.730;9.114;2023-03-16T04:18:23;11.50;;;8.87;;
9124;SDS011;4597;48.730;9.114;2023-03-16T04:20:48;10.97;;;8.70;;
9124;SDS011;4597;48.730;9.114;2023-03-16T04:23:14;12.13;;;9.63;;
9124;SDS011;4597;48.730;9.114;2023-03-16T04:25:40;11.33;;;9.10;;
9124;SDS011;4597;48.730;9.114;2023-03-16T04:28:06;12.13;;;9.17;;
9124;SDS011;4597;48.730;9.114;2023-03-16T04:30:32;11.70;;;8.17;;
9124;SDS011;4597;48.730;9.114;2023-03-16T04:32:59;11.10;;;9.10;;
9124;SDS011;4597;48.730;9.114;2023-03-16T04:35:24;11.60;;;9.77;;
9124;SDS011;4597;48.730;9.114;2023-03-16T04:37:50;10.87;;;9.23;;
9124;SDS011;4597;48.730;9.114;2023-03-16T04:40:15;12.13;;;9.10;;
9124;SDS011;4597;48.730;9.114;2023-03-16T04:42:42;10.10;;;8.63;;
9124;SDS011;4597;48.730;9.114;2023-03-16T04:45:08;9.43;;;8.30;;
9124;SDS011;4597;48.730;9.114;2023-03-16T04:47:34;12.27;;;9.00;;
9124;SDS011;4597;48.730;9.114;2023-03-16T04:50:01;10.53;;;8.57;;
9124;SDS011;4597;48.730;9.114;2023-03-16T04:52:27;9.43;;;8.43;;
9124;SDS011;4597;48.730;9.114;2023-03-16T04:54:53;9.27;;;8.23;;
9124;SDS011;4597;48.730;9.114;2023-03-16T04:57:19;9.90;;;8.67;;
9124;SDS011;4597;48.730;9.114;2023-03-16T04:59:44;9.90;;;8.90;;
9124;SDS011;4597;48.730;9.114;2023-03-16T05:02:10;9.30;;;8.10;;
9124;SDS011;4597;48.730;9.114;2023-03-16T05:04:36;11.13;;;8.27;;
9124;SDS011;4597;48.730;9.114;2023-03-16T05:07:01;9.83;;;8.63;;
9124;SDS011;4597;48.730;9.114;2023-03-16T05:09:27;10.87;;;8.90;;
9124;SDS011;4597;48.730;9.114;2023-03-16T05:11:52;8.70;;;7.80;;
9124;SDS011;4597;48.730;9.114;2023-03-16T05:14:18;10.33;;;8.13;;
9124;SDS011;4597;48.730;9.114;2023-03-16T05:16:43;11.63;;;9.10;;
9124;SDS011;4597;48.730;9.114;2023-03-16T05:19:09;10.23;;;8.90;;
9124;SDS011;4597;48.730;9.114;2023-03-16T05:21:34;10.23;;;9.00;;
9124;SDS011;4597;48.730;9.114;2023-03-16T05:24:03;11.30;;;8.90;;
9124;SDS011;4597;48.730;9.114;2023-03-16T05:26:29;9.83;;;8.83;;
9124;SDS011;4597;48.730;9.114;2023-03-16T05:28:55;11.70;;;9.17;;
9124;SDS011;4597;48.730;9.114;2023-03-16T05:31:22;13.07;;;10.20;;
9124;SDS011;4597;48.730;9.114;2023-03-16T05:33:50;11.53;;;9.67;;
9124;SDS011;4597;48.730;9.114;2023-03-16T05:36:16;13.37;;;10.43;;
9124;SDS011;4597;48.730;9.114;2023-03-16T05:38:42;16.17;;;11.70;;
9124;SDS011;4597;48.730;9.114;2023-03-16T05:41:07;14.50;;;11.10;;
9124;SDS011;4597;48.730;9.114;2023-03-16T05:43:33;14.63;;;11.23;;
9124;SDS011;4597;48.730;9.114;2023-03-16T05:45:58;11.50;;;10.30;;
9124;SDS011;4597;48.730;9.114;2023-03-16T05:48:24;15.70;;;11.77;;
9124;SDS011;4597;48.730;9.114;2023-03-16T05:50:50;17.53;;;12.93;;
9124;SDS011;4597;48.730;9.114;2023-03-16T05:53:16;15.03;;;12.53;;
9124;SDS011;4597;48.730;9.114;2023-03-16T05:55:42;14.20;;;11.80;;
9124;SDS011;4597;48.730;9.114;2023-03-16T05:58:07;15.63;;;12.47;;
9124;SDS011;4597;48.730;9.114;2023-03-16T06:00:33;13.83;;;12.10;;
9124;SDS011;4597;48.730;9.114;2023-03-16T06:02:59;14.50;;;11.97;;
9124;SDS011;4597;48.730;9.114;2023-03-16T06:05:25;14.20;;;11.83;;
9124;SDS011;4597;48.730;9.114;2023-03-16T06:07:52;15.13;;;11.63;;
9124;SDS011;4597;48.730;9.114;2023-03-16T06:10:18;15.90;;;12.53;;
9124;SDS011;4597;48.730;9.114;2023-03-16T06:12:43;14.33;;;11.30;;
9124;SDS011;4597;48.730;9.114;2023-03-16T06:15:09;13.40;;;11.70;;
9124;SDS011;4597;48.730;9.114;2023-03-16T06:17:36;16.30;;;10.87;;
9124;SDS011;4597;48.730;9.114;2023-03-16T06:20:03;13.37;;;10.63;;
9124;SDS011;4597;48.730;9.114;2023-03-16T06:22:35;13.60;;;10.93;;
9124;SDS011;4597;48.730;9.114;2023-03-16T06:25:01;11.83;;;9.90;;
9124;SDS011;4597;48.730;9.114;2023-03-16T06:27:28;12.30;;;10.37;;
9124;SDS011;4597;48.730;9.114;2023-03-16T06:29:53;15.80;;;11.23;;
9124;SDS011;4597;48.730;9.114;2023-03-16T06:32:19;15.77;;;11.83;;
9124;SDS011;4597;48.730;9.114;2023-03-16T06:34:45;16.87;;;12.17;;
9124;SDS011;4597;48.730;9.114;2023-03-16T06:37:11;17.17;;;13.83;;
9124;SDS011;4597;48.730;9.114;2023-03-16T06:39:37;15.37;;;12.77;;
9124;SDS011;4597;48.730;9.114;2023-03-16T06:42:03;17.97;;;13.60;;
9124;SDS011;4597;48.730;9.114;2023-03-16T06:44:29;20.90;;;16.60;;
9124;SDS011;4597;48.730;9.114;2023-03-16T06:46:55;21.57;;;15.43;;
9124;SDS011;4597;48.730;9.114;2023-03-16T06:49:21;22.63;;;14.70;;
9124;SDS011;4597;48.730;9.114;2023-03-16T06:51:46;20.13;;;16.00;;
9124;SDS011;4597;48.730;9.114;2023-03-16T06:54:12;18.13;;;15.17;;
9124;SDS011;4597;48.730;9.114;2023-03-16T06:56:37;16.20;;;13.80;;
9124;SDS011;4597;48.730;9.114;2023-03-16T06:59:03;15.13;;;12.87;;
9124;SDS011;4597;48.730;9.114;2023-03-16T07:01:28;15.97;;;13.60;;
9124;SDS011;4597;48.730;9.114;2023-03-16T07:03:54;18.17;;;13.53;;
9124;SDS011;4597;48.730;9.114;2023-03-16T07:06:19;15.10;;;12.80;;
9124;SDS011;4597;48.730;9.114;2023-03-16T07:08:45;16.37;;;12.83;;
9124;SDS011;4597;48.730;9.114;2023-03-16T07:11:10;16.30;;;12.10;;
9124;SDS011;4597;48.730;9.114;2023-03-16T07:13:36;16.10;;;10.93;;
9124;SDS011;4597;48.730;9.114;2023-03-16T07:16:02;12.97;;;11.10;;
9124;SDS011;4597;48.730;9.114;2023-03-16T07:18:28;12.30;;;10.40;;
9124;SDS011;4597;48.730;9.114;2023-03-16T07:20:55;12.30;;;10.50;;
9124;SDS011;4597;48.730;9.114;2023-03-16T07:23:21;12.50;;;10.63;;
9124;SDS011;4597;48.730;9.114;2023-03-16T07:25:46;14.20;;;10.57;;
9124;SDS011;4597;48.730;9.114;2023-03-16T07:28:12;13.33;;;10.93;;
9124;SDS011;4597;48.730;9.114;2023-03-16T07:30:37;13.13;;;11.17;;
9124;SDS011;4597;48.730;9.114;2023-03-16T07:33:03;13.00;;;11.13;;
9124;SDS011;4597;48.730;9.114;2023-03-16T07:35:29;14.00;;;11.60;;
9124;SDS011;4597;48.730;9.114;2023-03-16T07:37:55;11.73;;;10.47;;
9124;SDS011;4597;48.730;9.114;2023-03-16T07:40:21;14.00;;;10.83;;
9124;SDS011;4597;48.730;9.114;2023-03-16T07:42:47;15.87;;;11.50;;
9124;SDS011;4597;48.730;9.114;2023-03-16T07:45:13;15.77;;;11.70;;
9124;SDS011;4597;48.730;9.114;2023-03-16T07:47:39;14.93;;;11.63;;
9124;SDS011;4597;48.730;9.114;2023-03-16T07:50:04;15.40;;;11.50;;
9124;SDS011;4597;48.730;9.114;2023-03-16T07:52:31;13.77;;;10.93;;
9124;SDS011;4597;48.730;9.114;2023-03-16T07:54:57;16.10;;;11.27;;
9124;SDS011;4597;48.730;9.114;2023-03-16T07:57:23;13.40;;;11.10;;
9124;SDS011;4597;48.730;9.114;2023-03-16T07:59:48;14.13;;;11.87;;
9124;SDS011;4597;48.730;9.114;2023-03-16T08:02:15;17.23;;;11.00;;
9124;SDS011;4597;48.730;9.114;2023-03-16T08:04:43;14.07;;;10.73;;
9124;SDS011;4597;48.730;9.114;2023-03-16T08:07:09;14.73;;;11.67;;
9124;SDS011;4597;48.730;9.114;2023-03-16T08:09:35;13.00;;;10.77;;
9124;SDS011;4597;48.730;9.114;2023-03-16T08:12:04;15.40;;;11.67;;
9124;SDS011;4597;48.730;9.114;2023-03-16T08:14:31;14.23;;;11.20;;
9124;SDS011;4597;48.730;9.114;2023-03-16T08:16:58;12.30;;;10.80;;
9124;SDS011;4597;48.730;9.114;2023-03-16T08:19:24;14.70;;;11.93;;
9124;SDS011;4597;48.730;9.114;2023-03-16T08:21:50;14.60;;;11.20;;
9124;SDS011;4597;48.730;9.114;2023-03-16T08:24:15;12.53;;;11.20;;
9124;SDS011;4597;48.730;9.114;2023-03-16T08:26:41;14.00;;;11.03;;
9124;SDS011;4597;48.730;9.114;2023-03-16T08:29:06;15.83;;;11.67;;
9124;SDS011;4597;48.730;9.114;2023-03-16T08:31:32;13.27;;;10.93;;
9124;SDS011;4597;48.730;9.114;2023-03-16T08:33:59;12.50;;;10.60;;
9124;SDS011;4597;48.730;9.114;2023-03-16T08:36:25;10.83;;;9.70;;
9124;SDS011;4597;48.730;9.114;2023-03-16T08:38:54;14.27;;;10.70;;
9124;SDS011;4597;48.730;9.114;2023-03-16T08:41:20;15.53;;;11.47;;
9124;SDS011;4597;48.730;9.114;2023-03-16T08:43:46;13.20;;;11.30;;
9124;SDS011;4597;48.730;9.114;2023-03-16T08:46:12;13.93;;;11.87;;
9124;SDS011;4597;48.730;9.114;2023-03-16T08:48:39;12.00;;;10.67;;
9124;SDS011;4597;48.730;9.114;2023-03-16T08:51:05;12.27;;;10.83;;
9124;SDS011;4597;48.730;9.114;2023-03-16T08:53:32;13.87;;;10.90;;
9124;SDS011;4597;48.730;9.114;2023-03-16T08:56:07;13.80;;;10.97;;
9124;SDS011;4597;48.730;9.114;2023-03-16T08:58:38;13.83;;;10.77;;
9124;SDS011;4597;48.730;9.114;2023-03-16T09:01:09;12.30;;;9.93;;
9124;SDS011;4597;48.730;9.114;2023-03-16T09:03:36;13.77;;;10.73;;
9124;SDS011;4597;48.730;9.114;2023-03-16T09:06:03;11.90;;;9.80;;
9124;SDS011;4597;48.730;9.114;2023-03-16T09:08:30;12.73;;;10.20;;
9124;SDS011;4597;48.730;9.114;2023-03-16T09:11:04;11.53;;;9.90;;
9124;SDS011;4597;48.730;9.114;2023-03-16T09:13:35;11.60;;;9.13;;
9124;SDS011;4597;48.730;9.114;2023-03-16T09:16:02;11.70;;;9.53;;
9124;SDS011;4597;48.730;9.114;2023-03-16T09:18:29;11.97;;;9.80;;
9124;SDS011;4597;48.730;9.114;2023-03-16T09:20:58;10.30;;;8.47;;
9124;SDS011;4597;48.730;9.114;2023-03-16T09:23:26;9.83;;;8.60;;
9124;SDS011;4597;48.730;9.114;2023-03-16T09:25:58;8.87;;;8.00;;
9124;SDS011;4597;48.730;9.114;2023-03-16T09:28:26;11.00;;;8.83;;
9124;SDS011;4597;48.730;9.114;2023-03-16T09:30:53;11.33;;;8.33;;
9124;SDS011;4597;48.730;9.114;2023-03-16T09:33:20;12.47;;;8.53;;
9124;SDS011;4597;48.730;9.114;2023-03-16T09:35:46;9.00;;;7.97;;
9124;SDS011;4597;48.730;9.114;2023-03-16T09:38:11;8.87;;;7.43;;
9124;SDS011;4597;48.730;9.114;2023-03-16T09:40:37;9.33;;;7.20;;
9124;SDS011;4597;48.730;9.114;2023-03-16T09:45:55;8.67;;;6.67;;
9124;SDS011;4597;48.730;9.114;2023-03-16T09:48:26;7.57;;;6.87;;
9124;SDS011;4597;48.730;9.114;2023-03-16T09:50:56;8.47;;;6.70;;
9124;SDS011;4597;48.730;9.114;2023-03-16T09:53:28;6.73;;;6.13;;
9124;SDS011;4597;48.730;9.114;2023-03-16T09:58:34;6.90;;;6.23;;
9124;SDS011;4597;48.730;9.114;2023-03-16T10:04:10;7.33;;;5.87;;
9124;SDS011;4597;48.730;9.114;2023-03-16T10:12:18;6.23;;;5.60;;
9124;SDS011;4597;48.730;9.114;2023-03-16T10:17:38;6.60;;;4.80;;
9124;SDS011;4597;48.730;9.114;2023-03-16T10:20:11;4.97;;;4.53;;
9124;SDS011;4597;48.730;9.114;2023-03-16T10:22:42;5.07;;;4.67;;
9124;SDS011;4597;48.730;9.114;2023-03-16T10:28:04;5.63;;;4.60;;
9124;SDS011;4597;48.730;9.114;2023-03-16T10:30:30;4.60;;;4.20;;
9124;SDS011;4597;48.730;9.114;2023-03-16T10:33:02;4.47;;;4.07;;
9124;SDS011;4597;48.730;9.114;2023-03-16T10:36:32;5.17;;;4.50;;
9124;SDS011;4597;48.730;9.114;2023-03-16T10:38:41;6.90;;;4.33;;
9124;SDS011;4597;48.730;9.114;2023-03-16T10:43:52;4.73;;;4.20;;
9124;SDS011;4597;48.730;9.114;2023-03-16T10:46:24;4.80;;;4.03;;
9124;SDS011;4597;48.730;9.114;2023-03-16T10:48:58;5.50;;;4.00;;
9124;SDS011;4597;48.730;9.114;2023-03-16T10:51:28;5.07;;;3.70;;
9124;SDS011;4597;48.730;9.114;2023-03-16T10:54:15;4.23;;;3.83;;
9124;SDS011;4597;48.730;9.114;2023-03-16T10:56:48;4.33;;;3.93;;
9124;SDS011;4597;48.730;9.114;2023-03-16T10:59:33;4.90;;;3.80;;
9124;SDS011;4597;48.730;9.114;2023-03-16T11:02:01;3.97;;;3.60;;
9124;SDS011;4597;48.730;9.114;2023-03-16T11:04:38;3.57;;;3.30;;
9124;SDS011;4597;48.730;9.114;2023-03-16T11:07:05;4.57;;;3.50;;
9124;SDS011;4597;48.730;9.114;2023-03-16T11:09:33;3.80;;;3.50;;
9124;SDS011;4597;48.730;9.114;2023-03-16T11:14:54;4.10;;;3.77;;
9124;SDS011;4597;48.730;9.114;2023-03-16T11:17:36;3.93;;;3.53;;
9124;SDS011;4597;48.730;9.114;2023-03-16T11:20:15;4.57;;;3.57;;
9124;SDS011;4597;48.730;9.114;2023-03-16T11:22:43;4.43;;;3.73;;
9124;SDS011;4597;48.730;9.114;2023-03-16T11:30:28;4.10;;;3.80;;
9124;SDS011;4597;48.730;9.114;2023-03-16T11:32:59;4.73;;;3.93;;
9124;SDS011;4597;48.730;9.114;2023-03-16T11:35:37;5.27;;;4.20;;
9124;SDS011;4597;48.730;9.114;2023-03-16T11:38:19;4.53;;;4.20;;
9124;SDS011;4597;48.730;9.114;2023-03-16T11:41:07;5.07;;;4.57;;
9124;SDS011;4597;48.730;9.114;2023-03-16T11:46:18;5.13;;;3.90;;
9124;SDS011;4597;48.730;9.114;2023-03-16T12:06:29;3.30;;;3.03;;
9124;SDS011;4597;48.730;9.114;2023-03-16T12:09:15;3.87;;;3.50;;
9124;SDS011;4597;48.730;9.114;2023-03-16T12:14:46;4.53;;;3.17;;
9124;SDS011;4597;48.730;9.114;2023-03-16T12:17:24;3.40;;;3.10;;
9124;SDS011;4597;48.730;9.114;2023-03-16T12:23:01;4.57;;;3.60;;
9124;SDS011;4597;48.730;9.114;2023-03-16T12:25:38;4.70;;;3.60;;
9124;SDS011;4597;48.730;9.114;2023-03-16T12:28:21;3.10;;;2.90;;
9124;SDS011;4597;48.730;9.114;2023-03-16T12:30:59;3.90;;;3.50;;
9124;SDS011;4597;48.730;9.114;2023-03-16T12:33:47;3.37;;;3.17;;
9124;SDS011;4597;48.730;9.114;2023-03-16T12:39:13;2.93;;;2.70;;
9124;SDS011;4597;48.730;9.114;2023-03-16T12:42:04;3.17;;;2.90;;
9124;SDS011;4597;48.730;9.114;2023-03-16T12:47:25;2.97;;;2.67;;
9124;SDS011;4597;48.730;9.114;2023-03-16T12:50:02;3.30;;;3.10;;
9124;SDS011;4597;48.730;9.114;2023-03-16T12:52:37;2.90;;;2.70;;
9124;SDS011;4597;48.730;9.114;2023-03-16T12:55:15;3.10;;;2.80;;
9124;SDS011;4597;48.730;9.114;2023-03-16T12:57:43;2.67;;;2.47;;
9124;SDS011;4597;48.730;9.114;2023-03-16T13:00:11;3.30;;;2.90;;
9124;SDS011;4597;48.730;9.114;2023-03-16T13:02:40;3.93;;;3.10;;
9124;SDS011;4597;48.730;9.114;2023-03-16T13:08:02;3.83;;;2.63;;
9124;SDS011;4597;48.730;9.114;2023-03-16T13:10:32;3.07;;;2.70;;
9124;SDS011;4597;48.730;9.114;2023-03-16T13:13:12;3.90;;;3.07;;
9124;SDS011;4597;48.730;9.114;2023-03-16T13:15:40;2.53;;;2.30;;
9124;SDS011;4597;48.730;9.114;2023-03-16T13:20:52;2.93;;;2.63;;
9124;SDS011;4597;48.730;9.114;2023-03-16T13:24:11;3.93;;;2.90;;
9124;SDS011;4597;48.730;9.114;2023-03-16T13:29:25;5.03;;;2.70;;
9124;SDS011;4597;48.730;9.114;2023-03-16T13:31:55;2.77;;;2.53;;
9124;SDS011;4597;48.730;9.114;2023-03-16T13:34:25;3.80;;;2.70;;
9124;SDS011;4597;48.730;9.114;2023-03-16T13:36:54;4.30;;;2.97;;
9124;SDS011;4597;48.730;9.114;2023-03-16T13:39:22;2.90;;;2.70;;
9124;SDS011;4597;48.730;9.114;2023-03-16T13:41:54;2.87;;;2.67;;
9124;SDS011;4597;48.730;9.114;2023-03-16T13:44:26;2.80;;;2.53;;
9124;SDS011;4597;48.730;9.114;2023-03-16T13:46:53;4.13;;;2.70;;
9124;SDS011;4597;48.730;9.114;2023-03-16T13:49:19;4.67;;;2.83;;
9124;SDS011;4597;48.730;9.114;2023-03-16T13:51:45;4.47;;;2.60;;
9124;SDS011;4597;48.730;9.114;2023-03-16T13:54:24;2.97;;;2.40;;
9124;SDS011;4597;48.730;9.114;2023-03-16T13:56:54;3.20;;;2.67;;
9124;SDS011;4597;48.730;9.114;2023-03-16T13:59:26;3.23;;;2.60;;
9124;SDS011;4597;48.730;9.114;2023-03-16T14:01:53;2.80;;;2.60;;
9124;SDS011;4597;48.730;9.114;2023-03-16T14:04:22;2.50;;;2.30;;
9124;SDS011;4597;48.730;9.114;2023-03-16T14:07:02;2.70;;;2.37;;
9124;SDS011;4597;48.730;9.114;2023-03-16T14:09:28;3.13;;;2.67;;
9124;SDS011;4597;48.730;9.114;2023-03-16T14:11:57;3.87;;;3.23;;
9124;SDS011;4597;48.730;9.114;2023-03-16T14:14:24;2.67;;;2.33;;
9124;SDS011;4597;48.730;9.114;2023-03-16T14:17:02;4.67;;;2.50;;
9124;SDS011;4597;48.730;9.114;2023-03-16T14:19:37;3.10;;;2.80;;
9124;SDS011;4597;48.730;9.114;2023-03-16T14:22:11;2.83;;;2.57;;
9124;SDS011;4597;48.730;9.114;2023-03-16T14:24:39;3.33;;;3.00;;
9124;SDS011;4597;48.730;9.114;2023-03-16T14:30:16;3.10;;;2.90;;
9124;SDS011;4597;48.730;9.114;2023-03-16T14:32:58;4.03;;;2.87;;
9124;SDS011;4597;48.730;9.114;2023-03-16T14:35:45;3.60;;;3.17;;
9124;SDS011;4597;48.730;9.114;2023-03-16T14:40:57;3.70;;;2.70;;
9124;SDS011;4597;48.730;9.114;2023-03-16T14:43:29;3.43;;;3.13;;
9124;SDS011;4597;48.730;9.114;2023-03-16T14:45:57;3.53;;;3.07;;
9124;SDS011;4597;48.730;9.114;2023-03-16T14:48:23;3.47;;;2.70;;
9124;SDS011;4597;48.730;9.114;2023-03-16T14:50:53;3.67;;;3.00;;
9124;SDS011;4597;48.730;9.114;2023-03-16T14:53:21;3.33;;;2.63;;
9124;SDS011;4597;48.730;9.114;2023-03-16T14:55:48;2.70;;;2.60;;
9124;SDS011;4597;48.730;9.114;2023-03-16T14:58:14;3.00;;;2.77;;
9124;SDS011;4597;48.730;9.114;2023-03-16T15:00:40;3.40;;;3.03;;
9124;SDS011;4597;48.730;9.114;2023-03-16T15:03:09;3.20;;;2.90;;
9124;SDS011;4597;48.730;9.114;2023-03-16T15:05:39;2.93;;;2.67;;
9124;SDS011;4597;48.730;9.114;2023-03-16T15:08:13;4.70;;;2.80;;
9124;SDS011;4597;48.730;9.114;2023-03-16T15:10:39;3.03;;;2.73;;
9124;SDS011;4597;48.730;9.114;2023-03-16T15:13:10;3.17;;;2.80;;
9124;SDS011;4597;48.730;9.114;2023-03-16T15:15:40;3.90;;;2.47;;
9124;SDS011;4597;48.730;9.114;2023-03-16T15:18:06;2.63;;;2.43;;
9124;SDS011;4597;48.730;9.114;2023-03-16T15:20:33;3.10;;;2.80;;
9124;SDS011;4597;48.730;9.114;2023-03-16T15:23:03;3.30;;;2.97;;
9124;SDS011;4597;48.730;9.114;2023-03-16T15:25:36;2.90;;;2.70;;
9124;SDS011;4597;48.730;9.114;2023-03-16T15:28:16;2.80;;;2.60;;
9124;SDS011;4597;48.730;9.114;2023-03-16T15:30:47;2.60;;;2.40;;
9124;SDS011;4597;48.730;9.114;2023-03-16T15:33:14;2.97;;;2.77;;
9124;SDS011;4597;48.730;9.114;2023-03-16T15:35:41;3.77;;;2.27;;
9124;SDS011;4597;48.730;9.114;2023-03-16T15:38:17;2.87;;;2.63;;
9124;SDS011;4597;48.730;9.114;2023-03-16T15:40:47;2.53;;;2.33;;
9124;SDS011;4597;48.730;9.114;2023-03-16T15:43:15;2.80;;;2.60;;
9124;SDS011;4597;48.730;9.114;2023-03-16T15:45:43;2.80;;;2.60;;
9124;SDS011;4597;48.730;9.114;2023-03-16T15:48:09;2.60;;;2.40;;
9124;SDS011;4597;48.730;9.114;2023-03-16T15:50:36;3.00;;;2.80;;
9124;SDS011;4597;48.730;9.114;2023-03-16T15:53:06;3.60;;;2.47;;
9124;SDS011;4597;48.730;9.114;2023-03-16T15:55:40;2.33;;;2.20;;
9124;SDS011;4597;48.730;9.114;2023-03-16T15:58:14;2.73;;;2.53;;
9124;SDS011;4597;48.730;9.114;2023-03-16T16:00:43;2.90;;;2.60;;
9124;SDS011;4597;48.730;9.114;2023-03-16T16:03:11;2.67;;;2.47;;
9124;SDS011;4597;48.730;9.114;2023-03-16T16:05:37;3.20;;;2.90;;
9124;SDS011;4597;48.730;9.114;2023-03-16T16:08:03;3.00;;;2.63;;
9124;SDS011;4597;48.730;9.114;2023-03-16T16:10:29;3.00;;;2.80;;
9124;SDS011;4597;48.730;9.114;2023-03-16T16:12:54;2.93;;;2.73;;
9124;SDS011;4597;48.730;9.114;2023-03-16T16:15:22;3.30;;;3.10;;
9124;SDS011;4597;48.730;9.114;2023-03-16T16:17:53;3.33;;;2.80;;
9124;SDS011;4597;48.730;9.114;2023-03-16T16:20:21;4.30;;;3.13;;
9124;SDS011;4597;48.730;9.114;2023-03-16T16:22:52;3.47;;;3.27;;
9124;SDS011;4597;48.730;9.114;2023-03-16T16:25:22;3.50;;;3.20;;
9124;SDS011;4597;48.730;9.114;2023-03-16T16:27:51;4.87;;;3.30;;
9124;SDS011;4597;48.730;9.114;2023-03-16T16:30:19;3.20;;;3.00;;
9124;SDS011;4597;48.730;9.114;2023-03-16T16:32:50;4.43;;;3.30;;
9124;SDS011;4597;48.730;9.114;2023-03-16T16:35:21;4.27;;;3.50;;
9124;SDS011;4597;48.730;9.114;2023-03-16T16:37:48;3.60;;;3.30;;
9124;SDS011;4597;48.730;9.114;2023-03-16T16:40:15;4.40;;;3.67;;
9124;SDS011;4597;48.730;9.114;2023-03-16T16:42:43;3.60;;;3.30;;
9124;SDS011;4597;48.730;9.114;2023-03-16T16:45:21;3.83;;;3.50;;